sensor_id;sensor_type;location;lat;lon;timestamp;temperature;humidity
17296;DHT22;8766;51.480;6.872;2023-05-15T00:01:52;18.00;54.60
17296;DHT22;8766;51.480;6.872;2023-05-15T00:04:19;18.00;54.70
17296;DHT22;8766;51.480;6.872;2023-05-15T00:06:45;17.90;54.70
17296;DHT22;8766;51.480;6.872;2023-05-15T00:09:12;17.90;54.70
17296;DHT22;8766;51.480;6.872;2023-05-15T00:11:40;17.90;54.80
17296;DHT22;8766;51.480;6.872;2023-05-15T00:14:07;17.90;54.80
17296;DHT22;8766;51.480;6.872;2023-05-15T00:16:34;17.90;54.90
17296;DHT22;8766;51.480;6.872;2023-05-15T00:19:01;17.80;54.80
17296;DHT22;8766;51.480;6.872;2023-05-15T00:21:27;17.80;54.90
17296;DHT22;8766;51.480;6.872;2023-05-15T00:23:54;17.80;54.90
17296;DHT22;8766;51.480;6.872;2023-05-15T00:26:23;17.80;55.00
17296;DHT22;8766;51.480;6.872;2023-05-15T00:28:51;17.80;55.00
17296;DHT22;8766;51.480;6.872;2023-05-15T00:31:18;17.90;55.10
17296;DHT22;8766;51.480;6.872;2023-05-15T00:33:45;17.70;55.10
17296;DHT22;8766;51.480;6.872;2023-05-15T00:36:12;17.70;55.10
17296;DHT22;8766;51.480;6.872;2023-05-15T00:38:39;17.70;55.20
17296;DHT22;8766;51.480;6.872;2023-05-15T00:41:06;17.70;55.30
17296;DHT22;8766;51.480;6.872;2023-05-15T00:43:34;17.60;55.30
17296;DHT22;8766;51.480;6.872;2023-05-15T00:46:03;17.80;55.40
17296;DHT22;8766;51.480;6.872;2023-05-15T00:48:30;17.60;55.40
17296;DHT22;8766;51.480;6.872;2023-05-15T00:50:58;17.50;55.40
17296;DHT22;8766;51.480;6.872;2023-05-15T00:53:26;17.60;55.50
17296;DHT22;8766;51.480;6.872;2023-05-15T00:55:53;17.70;55.60
17296;DHT22;8766;51.480;6.872;2023-05-15T00:58:22;17.50;55.50
17296;DHT22;8766;51.480;6.872;2023-05-15T01:00:49;17.60;55.50
17296;DHT22;8766;51.480;6.872;2023-05-15T01:03:18;17.60;55.50
17296;DHT22;8766;51.480;6.872;2023-05-15T01:05:44;17.50;55.40
17296;DHT22;8766;51.480;6.872;2023-05-15T01:08:17;17.60;55.40
17296;DHT22;8766;51.480;6.872;2023-05-15T01:10:46;17.60;55.40
17296;DHT22;8766;51.480;6.872;2023-05-15T01:13:14;17.60;55.50
17296;DHT22;8766;51.480;6.872;2023-05-15T01:15:42;17.60;55.50
17296;DHT22;8766;51.480;6.872;2023-05-15T01:18:09;17.60;55.50
17296;DHT22;8766;51.480;6.872;2023-05-15T01:20:47;17.60;55.60
17296;DHT22;8766;51.480;6.872;2023-05-15T01:23:19;17.60;55.60
17296;DHT22;8766;51.480;6.872;2023-05-15T01:26:15;17.60;55.60
17296;DHT22;8766;51.480;6.872;2023-05-15T01:28:55;17.60;55.60
17296;DHT22;8766;51.480;6.872;2023-05-15T01:31:25;17.60;55.60
17296;DHT22;8766;51.480;6.872;2023-05-15T01:33:55;17.60;55.60
17296;DHT22;8766;51.480;6.872;2023-05-15T01:36:29;17.60;55.50
17296;DHT22;8766;51.480;6.872;2023-05-15T01:39:01;17.60;55.50
17296;DHT22;8766;51.480;6.872;2023-05-15T01:41:30;17.60;55.60
17296;DHT22;8766;51.480;6.872;2023-05-15T01:44:04;17.60;55.60
17296;DHT22;8766;51.480;6.872;2023-05-15T01:46:34;17.50;55.60
17296;DHT22;8766;51.480;6.872;2023-05-15T01:49:03;17.50;55.80
17296;DHT22;8766;51.480;6.872;2023-05-15T01:51:33;17.40;55.80
17296;DHT22;8766;51.480;6.872;2023-05-15T01:54:02;17.40;56.00
17296;DHT22;8766;51.480;6.872;2023-05-15T01:56:31;17.30;56.10
17296;DHT22;8766;51.480;6.872;2023-05-15T01:58:59;17.30;56.10
17296;DHT22;8766;51.480;6.872;2023-05-15T02:01:27;17.30;56.20
17296;DHT22;8766;51.480;6.872;2023-05-15T02:03:55;17.30;56.10
17296;DHT22;8766;51.480;6.872;2023-05-15T02:06:23;17.40;56.10
17296;DHT22;8766;51.480;6.872;2023-05-15T02:08:52;17.40;56.00
17296;DHT22;8766;51.480;6.872;2023-05-15T02:11:19;17.40;56.00
17296;DHT22;8766;51.480;6.872;2023-05-15T02:13:46;17.40;55.90
17296;DHT22;8766;51.480;6.872;2023-05-15T02:16:15;17.40;55.90
17296;DHT22;8766;51.480;6.872;2023-05-15T02:18:42;17.40;55.80
17296;DHT22;8766;51.480;6.872;2023-05-15T02:21:09;17.50;55.90
17296;DHT22;8766;51.480;6.872;2023-05-15T02:23:36;17.50;55.90
17296;DHT22;8766;51.480;6.872;2023-05-15T02:26:13;17.50;55.90
17296;DHT22;8766;51.480;6.872;2023-05-15T02:28:48;17.50;55.90
17296;DHT22;8766;51.480;6.872;2023-05-15T02:31:22;17.40;56.00
17296;DHT22;8766;51.480;6.872;2023-05-15T02:33:56;17.40;56.10
17296;DHT22;8766;51.480;6.872;2023-05-15T02:36:28;17.30;56.10
17296;DHT22;8766;51.480;6.872;2023-05-15T02:38:58;17.30;56.10
17296;DHT22;8766;51.480;6.872;2023-05-15T02:41:25;17.30;56.20
17296;DHT22;8766;51.480;6.872;2023-05-15T02:43:52;17.30;56.20
17296;DHT22;8766;51.480;6.872;2023-05-15T02:46:22;17.30;56.20
17296;DHT22;8766;51.480;6.872;2023-05-15T02:48:50;17.30;56.20
17296;DHT22;8766;51.480;6.872;2023-05-15T02:51:17;17.20;56.30
17296;DHT22;8766;51.480;6.872;2023-05-15T02:53:44;17.20;56.30
17296;DHT22;8766;51.480;6.872;2023-05-15T02:56:10;17.20;56.30
17296;DHT22;8766;51.480;6.872;2023-05-15T02:58:38;17.30;56.40
17296;DHT22;8766;51.480;6.872;2023-05-15T03:01:05;17.20;56.30
17296;DHT22;8766;51.480;6.872;2023-05-15T03:03:33;17.20;56.30
17296;DHT22;8766;51.480;6.872;2023-05-15T03:06:00;17.20;56.40
17296;DHT22;8766;51.480;6.872;2023-05-15T03:08:27;17.20;56.40
17296;DHT22;8766;51.480;6.872;2023-05-15T03:10:54;17.10;56.50
17296;DHT22;8766;51.480;6.872;2023-05-15T03:13:21;17.10;56.50
17296;DHT22;8766;51.480;6.872;2023-05-15T03:15:47;17.10;56.60
17296;DHT22;8766;51.480;6.872;2023-05-15T03:18:14;17.00;56.60
17296;DHT22;8766;51.480;6.872;2023-05-15T03:20:45;17.00;56.60
17296;DHT22;8766;51.480;6.872;2023-05-15T03:23:12;17.00;56.70
17296;DHT22;8766;51.480;6.872;2023-05-15T03:25:39;17.00;56.70
17296;DHT22;8766;51.480;6.872;2023-05-15T03:28:06;17.00;56.70
17296;DHT22;8766;51.480;6.872;2023-05-15T03:30:32;17.00;56.70
17296;DHT22;8766;51.480;6.872;2023-05-15T03:32:59;16.90;56.80
17296;DHT22;8766;51.480;6.872;2023-05-15T03:35:28;16.90;56.80
17296;DHT22;8766;51.480;6.872;2023-05-15T03:37:56;16.90;56.90
17296;DHT22;8766;51.480;6.872;2023-05-15T03:40:23;16.90;56.90
17296;DHT22;8766;51.480;6.872;2023-05-15T03:42:50;16.90;56.90
17296;DHT22;8766;51.480;6.872;2023-05-15T03:45:18;16.80;56.90
17296;DHT22;8766;51.480;6.872;2023-05-15T03:47:45;16.90;56.90
17296;DHT22;8766;51.480;6.872;2023-05-15T03:50:12;16.80;56.90
17296;DHT22;8766;51.480;6.872;2023-05-15T03:52:39;16.80;56.90
17296;DHT22;8766;51.480;6.872;2023-05-15T03:55:08;16.80;56.90
17296;DHT22;8766;51.480;6.872;2023-05-15T03:57:35;16.90;56.90
17296;DHT22;8766;51.480;6.872;2023-05-15T04:00:01;16.90;56.90
17296;DHT22;8766;51.480;6.872;2023-05-15T04:02:34;16.90;56.90
17296;DHT22;8766;51.480;6.872;2023-05-15T04:05:01;16.90;56.90
17296;DHT22;8766;51.480;6.872;2023-05-15T04:07:28;16.80;56.90
17296;DHT22;8766;51.480;6.872;2023-05-15T04:09:54;16.80;57.00
17296;DHT22;8766;51.480;6.872;2023-05-15T04:12:22;16.80;56.90
17296;DHT22;8766;51.480;6.872;2023-05-15T04:14:52;16.80;57.00
17296;DHT22;8766;51.480;6.872;2023-05-15T04:17:19;16.80;57.00
17296;DHT22;8766;51.480;6.872;2023-05-15T04:19:46;16.80;57.10
17296;DHT22;8766;51.480;6.872;2023-05-15T04:22:12;16.70;57.00
17296;DHT22;8766;51.480;6.872;2023-05-15T04:24:39;16.70;57.10
17296;DHT22;8766;51.480;6.872;2023-05-15T04:27:06;16.70;57.10
17296;DHT22;8766;51.480;6.872;2023-05-15T04:29:34;16.70;57.20
17296;DHT22;8766;51.480;6.872;2023-05-15T04:32:00;16.70;57.20
17296;DHT22;8766;51.480;6.872;2023-05-15T04:34:28;16.70;57.20
17296;DHT22;8766;51.480;6.872;2023-05-15T04:36:54;16.70;57.20
17296;DHT22;8766;51.480;6.872;2023-05-15T04:39:21;16.70;57.20
17296;DHT22;8766;51.480;6.872;2023-05-15T04:41:48;16.70;57.20
17296;DHT22;8766;51.480;6.872;2023-05-15T04:44:15;16.80;57.30
17296;DHT22;8766;51.480;6.872;2023-05-15T04:46:43;16.70;57.20
17296;DHT22;8766;51.480;6.872;2023-05-15T04:49:09;16.70;57.20
17296;DHT22;8766;51.480;6.872;2023-05-15T04:51:36;16.70;57.10
17296;DHT22;8766;51.480;6.872;2023-05-15T04:54:03;16.70;57.00
17296;DHT22;8766;51.480;6.872;2023-05-15T04:56:30;16.80;57.10
17296;DHT22;8766;51.480;6.872;2023-05-15T04:58:57;16.80;57.10
17296;DHT22;8766;51.480;6.872;2023-05-15T05:01:24;16.80;57.00
17296;DHT22;8766;51.480;6.872;2023-05-15T05:03:52;16.90;56.90
17296;DHT22;8766;51.480;6.872;2023-05-15T05:06:19;17.00;56.80
17296;DHT22;8766;51.480;6.872;2023-05-15T05:08:45;17.10;56.70
17296;DHT22;8766;51.480;6.872;2023-05-15T05:11:12;17.10;56.60
17296;DHT22;8766;51.480;6.872;2023-05-15T05:13:39;17.10;56.50
17296;DHT22;8766;51.480;6.872;2023-05-15T05:16:07;17.10;56.60
17296;DHT22;8766;51.480;6.872;2023-05-15T05:18:33;17.00;56.60
17296;DHT22;8766;51.480;6.872;2023-05-15T05:21:02;17.00;56.80
17296;DHT22;8766;51.480;6.872;2023-05-15T05:23:29;17.00;56.90
17296;DHT22;8766;51.480;6.872;2023-05-15T05:25:58;16.90;56.90
17296;DHT22;8766;51.480;6.872;2023-05-15T05:28:25;16.90;56.90
17296;DHT22;8766;51.480;6.872;2023-05-15T05:30:51;16.90;57.00
17296;DHT22;8766;51.480;6.872;2023-05-15T05:33:18;17.00;57.10
17296;DHT22;8766;51.480;6.872;2023-05-15T05:35:45;16.90;57.00
17296;DHT22;8766;51.480;6.872;2023-05-15T05:38:13;16.90;57.00
17296;DHT22;8766;51.480;6.872;2023-05-15T05:40:40;16.90;57.00
17296;DHT22;8766;51.480;6.872;2023-05-15T05:43:07;16.90;57.00
17296;DHT22;8766;51.480;6.872;2023-05-15T05:45:33;16.90;57.00
17296;DHT22;8766;51.480;6.872;2023-05-15T05:48:00;17.00;57.00
17296;DHT22;8766;51.480;6.872;2023-05-15T05:50:27;17.00;57.00
17296;DHT22;8766;51.480;6.872;2023-05-15T05:52:54;17.00;56.90
17296;DHT22;8766;51.480;6.872;2023-05-15T05:55:22;16.90;56.70
17296;DHT22;8766;51.480;6.872;2023-05-15T05:57:48;17.00;56.70
17296;DHT22;8766;51.480;6.872;2023-05-15T06:00:16;17.10;56.70
17296;DHT22;8766;51.480;6.872;2023-05-15T06:02:43;17.20;56.60
17296;DHT22;8766;51.480;6.872;2023-05-15T06:05:10;17.40;56.40
17296;DHT22;8766;51.480;6.872;2023-05-15T06:07:37;17.40;56.00
17296;DHT22;8766;51.480;6.872;2023-05-15T06:10:05;17.60;55.80
17296;DHT22;8766;51.480;6.872;2023-05-15T06:12:35;17.90;55.40
17296;DHT22;8766;51.480;6.872;2023-05-15T06:15:02;18.60;54.40
17296;DHT22;8766;51.480;6.872;2023-05-15T06:17:29;19.70;52.40
17296;DHT22;8766;51.480;6.872;2023-05-15T06:19:56;20.20;51.40
17296;DHT22;8766;51.480;6.872;2023-05-15T06:22:22;20.40;51.20
17296;DHT22;8766;51.480;6.872;2023-05-15T06:24:49;20.30;51.30
17296;DHT22;8766;51.480;6.872;2023-05-15T06:27:16;20.20;51.50
17296;DHT22;8766;51.480;6.872;2023-05-15T06:29:44;20.20;51.60
17296;DHT22;8766;51.480;6.872;2023-05-15T06:32:11;20.00;51.80
17296;DHT22;8766;51.480;6.872;2023-05-15T06:34:37;20.10;52.10
17296;DHT22;8766;51.480;6.872;2023-05-15T06:37:04;20.20;51.80
17296;DHT22;8766;51.480;6.872;2023-05-15T06:39:32;20.50;51.50
17296;DHT22;8766;51.480;6.872;2023-05-15T06:41:58;20.70;51.20
17296;DHT22;8766;51.480;6.872;2023-05-15T06:44:26;20.80;51.10
17296;DHT22;8766;51.480;6.872;2023-05-15T06:46:54;21.10;50.70
17296;DHT22;8766;51.480;6.872;2023-05-15T06:49:20;21.90;49.70
17296;DHT22;8766;51.480;6.872;2023-05-15T06:51:47;22.90;48.00
17296;DHT22;8766;51.480;6.872;2023-05-15T06:54:14;23.60;46.90
17296;DHT22;8766;51.480;6.872;2023-05-15T06:56:41;23.90;46.50
17296;DHT22;8766;51.480;6.872;2023-05-15T06:59:07;24.00;46.40
17296;DHT22;8766;51.480;6.872;2023-05-15T07:01:34;23.70;46.70
17296;DHT22;8766;51.480;6.872;2023-05-15T07:04:02;23.40;47.40
17296;DHT22;8766;51.480;6.872;2023-05-15T07:06:30;23.10;48.00
17296;DHT22;8766;51.480;6.872;2023-05-15T07:08:57;23.00;48.30
17296;DHT22;8766;51.480;6.872;2023-05-15T07:11:23;23.80;47.10
17296;DHT22;8766;51.480;6.872;2023-05-15T07:13:50;25.20;45.10
17296;DHT22;8766;51.480;6.872;2023-05-15T07:16:17;26.30;43.60
17296;DHT22;8766;51.480;6.872;2023-05-15T07:18:44;27.10;42.70
17296;DHT22;8766;51.480;6.872;2023-05-15T07:21:12;27.20;43.10
17296;DHT22;8766;51.480;6.872;2023-05-15T07:23:39;26.50;43.40
17296;DHT22;8766;51.480;6.872;2023-05-15T07:26:06;26.20;44.10
17296;DHT22;8766;51.480;6.872;2023-05-15T07:28:32;26.10;44.40
17296;DHT22;8766;51.480;6.872;2023-05-15T07:30:59;25.50;45.10
17296;DHT22;8766;51.480;6.872;2023-05-15T07:33:26;24.90;46.10
17296;DHT22;8766;51.480;6.872;2023-05-15T07:35:53;24.50;46.90
17296;DHT22;8766;51.480;6.872;2023-05-15T07:38:21;24.80;46.50
17296;DHT22;8766;51.480;6.872;2023-05-15T07:40:48;25.50;45.60
17296;DHT22;8766;51.480;6.872;2023-05-15T07:43:15;25.90;45.20
17296;DHT22;8766;51.480;6.872;2023-05-15T07:45:42;26.30;44.60
17296;DHT22;8766;51.480;6.872;2023-05-15T07:48:15;27.00;43.60
17296;DHT22;8766;51.480;6.872;2023-05-15T07:50:43;27.80;42.60
17296;DHT22;8766;51.480;6.872;2023-05-15T07:53:11;28.50;41.80
17296;DHT22;8766;51.480;6.872;2023-05-15T07:55:39;28.70;41.60
17296;DHT22;8766;51.480;6.872;2023-05-15T07:58:06;29.00;41.30
17296;DHT22;8766;51.480;6.872;2023-05-15T08:00:34;29.00;41.40
17296;DHT22;8766;51.480;6.872;2023-05-15T08:03:01;28.50;42.10
17296;DHT22;8766;51.480;6.872;2023-05-15T08:05:27;27.90;43.00
17296;DHT22;8766;51.480;6.872;2023-05-15T08:07:54;27.90;43.20
17296;DHT22;8766;51.480;6.872;2023-05-15T08:10:21;28.10;42.90
17296;DHT22;8766;51.480;6.872;2023-05-15T08:12:49;28.00;43.00
17296;DHT22;8766;51.480;6.872;2023-05-15T08:15:16;28.30;42.80
17296;DHT22;8766;51.480;6.872;2023-05-15T08:17:43;28.40;42.60
17296;DHT22;8766;51.480;6.872;2023-05-15T08:20:11;28.60;42.40
17296;DHT22;8766;51.480;6.872;2023-05-15T08:22:38;29.20;41.80
17296;DHT22;8766;51.480;6.872;2023-05-15T08:25:05;29.90;40.90
17296;DHT22;8766;51.480;6.872;2023-05-15T08:27:33;30.70;39.90
17296;DHT22;8766;51.480;6.872;2023-05-15T08:30:01;31.30;39.00
17296;DHT22;8766;51.480;6.872;2023-05-15T08:32:28;31.70;38.50
17296;DHT22;8766;51.480;6.872;2023-05-15T08:34:55;31.90;38.10
17296;DHT22;8766;51.480;6.872;2023-05-15T08:37:22;32.20;38.50
17296;DHT22;8766;51.480;6.872;2023-05-15T08:39:49;32.30;37.60
17296;DHT22;8766;51.480;6.872;2023-05-15T08:42:19;32.40;37.50
17296;DHT22;8766;51.480;6.872;2023-05-15T08:44:47;32.50;37.20
17296;DHT22;8766;51.480;6.872;2023-05-15T08:47:15;32.60;37.10
17296;DHT22;8766;51.480;6.872;2023-05-15T08:49:50;32.60;37.10
17296;DHT22;8766;51.480;6.872;2023-05-15T08:52:20;32.60;37.00
17296;DHT22;8766;51.480;6.872;2023-05-15T08:54:47;32.60;37.00
17296;DHT22;8766;51.480;6.872;2023-05-15T08:57:16;32.40;37.00
17296;DHT22;8766;51.480;6.872;2023-05-15T08:59:43;32.00;37.40
17296;DHT22;8766;51.480;6.872;2023-05-15T09:02:09;31.30;38.10
17296;DHT22;8766;51.480;6.872;2023-05-15T09:04:38;30.60;39.10
17296;DHT22;8766;51.480;6.872;2023-05-15T09:07:04;29.90;40.10
17296;DHT22;8766;51.480;6.872;2023-05-15T09:09:32;29.30;41.20
17296;DHT22;8766;51.480;6.872;2023-05-15T09:11:59;28.60;42.00
17296;DHT22;8766;51.480;6.872;2023-05-15T09:14:27;28.20;42.90
17296;DHT22;8766;51.480;6.872;2023-05-15T09:16:53;27.70;43.50
17296;DHT22;8766;51.480;6.872;2023-05-15T09:19:21;27.30;44.00
17296;DHT22;8766;51.480;6.872;2023-05-15T09:21:49;27.10;44.40
17296;DHT22;8766;51.480;6.872;2023-05-15T09:24:18;26.80;44.70
17296;DHT22;8766;51.480;6.872;2023-05-15T09:26:59;26.70;45.00
17296;DHT22;8766;51.480;6.872;2023-05-15T09:29:27;26.50;45.20
17296;DHT22;8766;51.480;6.872;2023-05-15T09:31:54;26.40;45.40
17296;DHT22;8766;51.480;6.872;2023-05-15T09:34:28;26.10;45.70
17296;DHT22;8766;51.480;6.872;2023-05-15T09:36:57;25.90;46.00
17296;DHT22;8766;51.480;6.872;2023-05-15T09:39:24;25.70;46.10
17296;DHT22;8766;51.480;6.872;2023-05-15T09:41:51;25.60;46.30
17296;DHT22;8766;51.480;6.872;2023-05-15T09:44:19;25.50;46.40
17296;DHT22;8766;51.480;6.872;2023-05-15T09:46:49;25.40;46.50
17296;DHT22;8766;51.480;6.872;2023-05-15T09:49:16;25.30;46.60
17296;DHT22;8766;51.480;6.872;2023-05-15T09:51:43;25.10;46.80
17296;DHT22;8766;51.480;6.872;2023-05-15T09:54:16;24.90;47.00
17296;DHT22;8766;51.480;6.872;2023-05-15T09:56:43;24.70;47.20
17296;DHT22;8766;51.480;6.872;2023-05-15T09:59:12;24.80;47.20
17296;DHT22;8766;51.480;6.872;2023-05-15T10:01:41;24.80;47.10
17296;DHT22;8766;51.480;6.872;2023-05-15T10:04:11;24.80;47.10
17296;DHT22;8766;51.480;6.872;2023-05-15T10:06:38;24.80;47.10
17296;DHT22;8766;51.480;6.872;2023-05-15T10:09:06;24.80;47.10
17296;DHT22;8766;51.480;6.872;2023-05-15T10:11:36;24.80;47.10
17296;DHT22;8766;51.480;6.872;2023-05-15T10:14:04;24.70;47.00
17296;DHT22;8766;51.480;6.872;2023-05-15T10:16:33;24.70;47.00
17296;DHT22;8766;51.480;6.872;2023-05-15T10:19:02;24.70;47.00
17296;DHT22;8766;51.480;6.872;2023-05-15T10:21:31;24.80;47.00
17296;DHT22;8766;51.480;6.872;2023-05-15T10:23:59;24.80;47.00
17296;DHT22;8766;51.480;6.872;2023-05-15T10:26:32;24.80;46.90
17296;DHT22;8766;51.480;6.872;2023-05-15T10:29:04;24.80;46.90
17296;DHT22;8766;51.480;6.872;2023-05-15T10:31:32;24.80;46.80
17296;DHT22;8766;51.480;6.872;2023-05-15T10:33:59;24.70;46.80
17296;DHT22;8766;51.480;6.872;2023-05-15T10:36:26;24.70;46.90
17296;DHT22;8766;51.480;6.872;2023-05-15T10:38:53;24.60;46.90
17296;DHT22;8766;51.480;6.872;2023-05-15T10:41:20;24.50;47.10
17296;DHT22;8766;51.480;6.872;2023-05-15T10:43:48;24.50;47.10
17296;DHT22;8766;51.480;6.872;2023-05-15T10:46:16;24.50;47.20
17296;DHT22;8766;51.480;6.872;2023-05-15T10:48:43;24.40;47.20
17296;DHT22;8766;51.480;6.872;2023-05-15T10:51:17;24.30;47.40
17296;DHT22;8766;51.480;6.872;2023-05-15T10:53:44;24.30;47.40
17296;DHT22;8766;51.480;6.872;2023-05-15T10:56:13;24.30;47.30
17296;DHT22;8766;51.480;6.872;2023-05-15T10:58:44;24.30;47.20
17296;DHT22;8766;51.480;6.872;2023-05-15T11:01:25;24.40;47.30
17296;DHT22;8766;51.480;6.872;2023-05-15T11:04:04;24.30;47.30
17296;DHT22;8766;51.480;6.872;2023-05-15T11:06:32;24.10;47.30
17296;DHT22;8766;51.480;6.872;2023-05-15T11:09:35;24.20;47.40
17296;DHT22;8766;51.480;6.872;2023-05-15T11:12:04;24.20;47.40
17296;DHT22;8766;51.480;6.872;2023-05-15T11:14:31;24.20;47.40
17296;DHT22;8766;51.480;6.872;2023-05-15T11:17:01;24.10;47.30
17296;DHT22;8766;51.480;6.872;2023-05-15T11:19:34;24.20;47.40
17296;DHT22;8766;51.480;6.872;2023-05-15T11:22:14;24.10;47.50
17296;DHT22;8766;51.480;6.872;2023-05-15T11:24:50;24.00;47.50
17296;DHT22;8766;51.480;6.872;2023-05-15T11:27:18;24.10;47.60
17296;DHT22;8766;51.480;6.872;2023-05-15T11:30:05;24.00;47.50
17296;DHT22;8766;51.480;6.872;2023-05-15T11:32:51;23.90;47.50
17296;DHT22;8766;51.480;6.872;2023-05-15T11:35:22;23.90;47.50
17296;DHT22;8766;51.480;6.872;2023-05-15T11:37:50;23.90;47.50
17296;DHT22;8766;51.480;6.872;2023-05-15T11:40:20;23.90;47.40
17296;DHT22;8766;51.480;6.872;2023-05-15T11:43:04;23.90;47.40
17296;DHT22;8766;51.480;6.872;2023-05-15T11:45:33;23.90;47.40
17296;DHT22;8766;51.480;6.872;2023-05-15T11:48:03;23.90;47.40
17296;DHT22;8766;51.480;6.872;2023-05-15T11:50:30;23.90;47.40
17296;DHT22;8766;51.480;6.872;2023-05-15T11:53:01;23.90;47.40
17296;DHT22;8766;51.480;6.872;2023-05-15T11:55:29;23.90;47.40
17296;DHT22;8766;51.480;6.872;2023-05-15T11:57:56;23.90;47.30
17296;DHT22;8766;51.480;6.872;2023-05-15T12:00:23;23.90;47.20
17296;DHT22;8766;51.480;6.872;2023-05-15T12:02:50;24.00;47.10
17296;DHT22;8766;51.480;6.872;2023-05-15T12:05:18;24.10;47.10
17296;DHT22;8766;51.480;6.872;2023-05-15T12:07:45;24.10;47.00
17296;DHT22;8766;51.480;6.872;2023-05-15T12:10:12;24.10;46.90
17296;DHT22;8766;51.480;6.872;2023-05-15T12:12:39;24.30;47.00
17296;DHT22;8766;51.480;6.872;2023-05-15T12:15:08;24.10;46.90
17296;DHT22;8766;51.480;6.872;2023-05-15T12:17:36;24.20;46.80
17296;DHT22;8766;51.480;6.872;2023-05-15T12:20:06;24.20;46.70
17296;DHT22;8766;51.480;6.872;2023-05-15T12:22:38;24.20;46.80
17296;DHT22;8766;51.480;6.872;2023-05-15T12:25:07;24.00;46.90
17296;DHT22;8766;51.480;6.872;2023-05-15T12:27:34;24.00;47.00
17296;DHT22;8766;51.480;6.872;2023-05-15T12:30:02;24.10;47.00
17296;DHT22;8766;51.480;6.872;2023-05-15T12:32:30;24.20;46.80
17296;DHT22;8766;51.480;6.872;2023-05-15T12:34:57;24.30;46.60
17296;DHT22;8766;51.480;6.872;2023-05-15T12:37:24;24.50;46.40
17296;DHT22;8766;51.480;6.872;2023-05-15T12:39:54;24.60;46.30
17296;DHT22;8766;51.480;6.872;2023-05-15T12:42:22;24.60;46.10
17296;DHT22;8766;51.480;6.872;2023-05-15T12:44:53;24.70;45.90
17296;DHT22;8766;51.480;6.872;2023-05-15T12:47:23;24.80;46.40
17296;DHT22;8766;51.480;6.872;2023-05-15T12:49:50;24.80;45.80
17296;DHT22;8766;51.480;6.872;2023-05-15T12:52:20;24.70;45.90
17296;DHT22;8766;51.480;6.872;2023-05-15T12:54:47;24.60;46.10
17296;DHT22;8766;51.480;6.872;2023-05-15T12:57:15;24.50;46.40
17296;DHT22;8766;51.480;6.872;2023-05-15T12:59:42;24.30;46.50
17296;DHT22;8766;51.480;6.872;2023-05-15T13:02:10;24.20;46.70
17296;DHT22;8766;51.480;6.872;2023-05-15T13:04:37;24.30;46.70
17296;DHT22;8766;51.480;6.872;2023-05-15T13:07:04;24.40;46.40
17296;DHT22;8766;51.480;6.872;2023-05-15T13:09:31;24.60;46.10
17296;DHT22;8766;51.480;6.872;2023-05-15T13:12:00;24.80;45.80
17296;DHT22;8766;51.480;6.872;2023-05-15T13:14:31;25.10;45.40
17296;DHT22;8766;51.480;6.872;2023-05-15T13:17:00;25.30;45.10
17296;DHT22;8766;51.480;6.872;2023-05-15T13:19:28;25.50;45.30
17296;DHT22;8766;51.480;6.872;2023-05-15T13:21:55;25.60;44.70
17296;DHT22;8766;51.480;6.872;2023-05-15T13:24:22;25.60;44.60
17296;DHT22;8766;51.480;6.872;2023-05-15T13:26:49;25.60;44.70
17296;DHT22;8766;51.480;6.872;2023-05-15T13:29:17;25.50;44.90
17296;DHT22;8766;51.480;6.872;2023-05-15T13:31:45;25.50;45.00
17296;DHT22;8766;51.480;6.872;2023-05-15T13:34:12;25.50;45.00
17296;DHT22;8766;51.480;6.872;2023-05-15T13:36:39;25.50;45.00
17296;DHT22;8766;51.480;6.872;2023-05-15T13:39:06;25.50;45.00
17296;DHT22;8766;51.480;6.872;2023-05-15T13:41:35;25.40;45.10
17296;DHT22;8766;51.480;6.872;2023-05-15T13:44:02;25.30;45.30
17296;DHT22;8766;51.480;6.872;2023-05-15T13:46:29;25.20;45.40
17296;DHT22;8766;51.480;6.872;2023-05-15T13:48:57;25.20;45.60
17296;DHT22;8766;51.480;6.872;2023-05-15T13:51:23;25.10;45.70
17296;DHT22;8766;51.480;6.872;2023-05-15T13:53:50;24.90;45.80
17296;DHT22;8766;51.480;6.872;2023-05-15T13:56:17;24.90;46.00
17296;DHT22;8766;51.480;6.872;2023-05-15T13:58:44;24.80;46.30
17296;DHT22;8766;51.480;6.872;2023-05-15T14:01:10;24.50;46.60
17296;DHT22;8766;51.480;6.872;2023-05-15T14:03:37;24.20;46.90
17296;DHT22;8766;51.480;6.872;2023-05-15T14:06:06;24.10;47.30
17296;DHT22;8766;51.480;6.872;2023-05-15T14:08:33;23.90;47.50
17296;DHT22;8766;51.480;6.872;2023-05-15T14:11:00;23.80;47.70
17296;DHT22;8766;51.480;6.872;2023-05-15T14:13:27;23.70;47.80
17296;DHT22;8766;51.480;6.872;2023-05-15T14:15:56;23.80;47.70
17296;DHT22;8766;51.480;6.872;2023-05-15T14:18:22;23.90;47.80
17296;DHT22;8766;51.480;6.872;2023-05-15T14:20:50;23.70;47.80
17296;DHT22;8766;51.480;6.872;2023-05-15T14:23:18;23.70;47.80
17296;DHT22;8766;51.480;6.872;2023-05-15T14:25:45;23.50;47.80
17296;DHT22;8766;51.480;6.872;2023-05-15T14:28:11;23.50;47.80
17296;DHT22;8766;51.480;6.872;2023-05-15T14:30:38;23.60;47.90
17296;DHT22;8766;51.480;6.872;2023-05-15T14:33:05;23.40;47.80
17296;DHT22;8766;51.480;6.872;2023-05-15T14:35:32;23.40;48.00
17296;DHT22;8766;51.480;6.872;2023-05-15T14:37:58;23.30;48.10
17296;DHT22;8766;51.480;6.872;2023-05-15T14:40:26;23.30;48.30
17296;DHT22;8766;51.480;6.872;2023-05-15T14:42:53;23.30;48.30
17296;DHT22;8766;51.480;6.872;2023-05-15T14:45:20;23.10;48.30
17296;DHT22;8766;51.480;6.872;2023-05-15T14:47:47;23.20;48.30
17296;DHT22;8766;51.480;6.872;2023-05-15T14:50:13;23.10;48.30
17296;DHT22;8766;51.480;6.872;2023-05-15T14:52:40;23.20;48.30
17296;DHT22;8766;51.480;6.872;2023-05-15T14:55:08;23.20;48.20
17296;DHT22;8766;51.480;6.872;2023-05-15T14:57:36;23.30;48.20
17296;DHT22;8766;51.480;6.872;2023-05-15T15:00:05;23.40;48.00
17296;DHT22;8766;51.480;6.872;2023-05-15T15:02:32;23.40;47.90
17296;DHT22;8766;51.480;6.872;2023-05-15T15:04:59;23.40;47.80
17296;DHT22;8766;51.480;6.872;2023-05-15T15:07:27;23.50;47.70
17296;DHT22;8766;51.480;6.872;2023-05-15T15:09:54;23.60;48.10
17296;DHT22;8766;51.480;6.872;2023-05-15T15:12:21;23.70;47.30
17296;DHT22;8766;51.480;6.872;2023-05-15T15:14:49;23.90;46.80
17296;DHT22;8766;51.480;6.872;2023-05-15T15:17:16;24.10;46.70
17296;DHT22;8766;51.480;6.872;2023-05-15T15:19:42;24.20;46.50
17296;DHT22;8766;51.480;6.872;2023-05-15T15:22:09;24.30;46.30
17296;DHT22;8766;51.480;6.872;2023-05-15T15:24:36;24.50;46.20
17296;DHT22;8766;51.480;6.872;2023-05-15T15:27:03;24.40;46.00
17296;DHT22;8766;51.480;6.872;2023-05-15T15:29:30;24.50;46.00
17296;DHT22;8766;51.480;6.872;2023-05-15T15:31:58;24.50;46.10
17296;DHT22;8766;51.480;6.872;2023-05-15T15:34:24;24.30;46.20
17296;DHT22;8766;51.480;6.872;2023-05-15T15:36:51;24.30;46.30
17296;DHT22;8766;51.480;6.872;2023-05-15T15:39:18;24.20;46.70
17296;DHT22;8766;51.480;6.872;2023-05-15T15:41:45;24.00;47.00
17296;DHT22;8766;51.480;6.872;2023-05-15T15:44:12;23.70;47.40
17296;DHT22;8766;51.480;6.872;2023-05-15T15:46:38;23.60;47.80
17296;DHT22;8766;51.480;6.872;2023-05-15T15:49:06;23.30;48.10
17296;DHT22;8766;51.480;6.872;2023-05-15T15:51:33;23.10;48.40